sensor_id;sensor_type;location;lat;lon;timestamp;P1;durP1;ratioP1;P2;durP2;ratioP2
7432;SDS011;32233;49.500;7.764;2023-04-03T00:01:15;3.23;;;3.03;;
7432;SDS011;32233;49.500;7.764;2023-04-03T00:03:42;3.67;;;2.90;;
7432;SDS011;32233;49.500;7.764;2023-04-03T00:06:09;3.70;;;3.40;;
7432;SDS011;32233;49.500;7.764;2023-04-03T00:08:38;3.83;;;3.23;;
7432;SDS011;32233;49.500;7.764;2023-04-03T00:11:06;3.03;;;2.73;;
7432;SDS011;32233;49.500;7.764;2023-04-03T00:13:33;4.20;;;3.13;;
7432;SDS011;32233;49.500;7.764;2023-04-03T00:16:00;3.33;;;2.67;;
7432;SDS011;32233;49.500;7.764;2023-04-03T00:18:27;3.23;;;2.97;;
7432;SDS011;32233;49.500;7.764;2023-04-03T00:20:53;5.17;;;3.10;;
7432;SDS011;32233;49.500;7.764;2023-04-03T00:23:20;5.27;;;2.97;;
7432;SDS011;32233;49.500;7.764;2023-04-03T00:25:46;5.07;;;2.87;;
7432;SDS011;32233;49.500;7.764;2023-04-03T00:28:13;3.60;;;3.20;;
7432;SDS011;32233;49.500;7.764;2023-04-03T00:30:39;3.27;;;2.97;;
7432;SDS011;32233;49.500;7.764;2023-04-03T00:33:06;3.37;;;3.07;;
7432;SDS011;32233;49.500;7.764;2023-04-03T00:35:33;4.17;;;3.30;;
7432;SDS011;32233;49.500;7.764;2023-04-03T00:38:00;6.87;;;3.60;;
7432;SDS011;32233;49.500;7.764;2023-04-03T00:40:27;4.67;;;3.00;;
7432;SDS011;32233;49.500;7.764;2023-04-03T00:42:58;3.20;;;2.90;;
7432;SDS011;32233;49.500;7.764;2023-04-03T00:45:27;5.13;;;3.10;;
7432;SDS011;32233;49.500;7.764;2023-04-03T00:47:54;3.33;;;3.07;;
7432;SDS011;32233;49.500;7.764;2023-04-03T00:50:22;3.10;;;2.90;;
7432;SDS011;32233;49.500;7.764;2023-04-03T00:52:49;4.80;;;3.10;;
7432;SDS011;32233;49.500;7.764;2023-04-03T00:55:16;4.33;;;3.13;;
7432;SDS011;32233;49.500;7.764;2023-04-03T00:57:43;4.00;;;3.20;;
7432;SDS011;32233;49.500;7.764;2023-04-03T01:00:12;4.40;;;3.20;;
7432;SDS011;32233;49.500;7.764;2023-04-03T01:02:43;3.43;;;3.13;;
7432;SDS011;32233;49.500;7.764;2023-04-03T01:05:12;3.53;;;2.80;;
7432;SDS011;32233;49.500;7.764;2023-04-03T01:07:42;3.47;;;3.13;;
7432;SDS011;32233;49.500;7.764;2023-04-03T01:10:10;4.87;;;3.33;;
7432;SDS011;32233;49.500;7.764;2023-04-03T01:12:41;3.57;;;3.20;;
7432;SDS011;32233;49.500;7.764;2023-04-03T01:15:20;3.57;;;3.20;;
7432;SDS011;32233;49.500;7.764;2023-04-03T01:17:53;4.83;;;3.93;;
7432;SDS011;32233;49.500;7.764;2023-04-03T01:25:57;3.43;;;2.90;;
7432;SDS011;32233;49.500;7.764;2023-04-03T01:28:26;6.03;;;3.57;;
7432;SDS011;32233;49.500;7.764;2023-04-03T01:33:54;3.80;;;3.27;;
7432;SDS011;32233;49.500;7.764;2023-04-03T01:36:23;4.20;;;3.47;;
7432;SDS011;32233;49.500;7.764;2023-04-03T01:38:53;4.30;;;3.40;;
7432;SDS011;32233;49.500;7.764;2023-04-03T01:41:20;3.53;;;3.23;;
7432;SDS011;32233;49.500;7.764;2023-04-03T01:43:49;3.80;;;3.43;;
7432;SDS011;32233;49.500;7.764;2023-04-03T01:46:16;6.70;;;3.40;;
7432;SDS011;32233;49.500;7.764;2023-04-03T01:48:43;4.67;;;3.57;;
7432;SDS011;32233;49.500;7.764;2023-04-03T01:51:10;4.63;;;3.60;;
7432;SDS011;32233;49.500;7.764;2023-04-03T01:53:37;4.20;;;3.63;;
7432;SDS011;32233;49.500;7.764;2023-04-03T01:56:03;6.30;;;3.73;;
7432;SDS011;32233;49.500;7.764;2023-04-03T01:58:31;5.33;;;3.90;;
7432;SDS011;32233;49.500;7.764;2023-04-03T02:00:58;4.63;;;3.93;;
7432;SDS011;32233;49.500;7.764;2023-04-03T02:03:25;4.90;;;3.50;;
7432;SDS011;32233;49.500;7.764;2023-04-03T02:05:52;4.23;;;3.77;;
7432;SDS011;32233;49.500;7.764;2023-04-03T02:08:19;3.63;;;3.30;;
7432;SDS011;32233;49.500;7.764;2023-04-03T02:10:49;5.27;;;4.07;;
7432;SDS011;32233;49.500;7.764;2023-04-03T02:13:16;5.33;;;3.70;;
7432;SDS011;32233;49.500;7.764;2023-04-03T02:15:44;7.20;;;4.07;;
7432;SDS011;32233;49.500;7.764;2023-04-03T02:18:15;4.67;;;3.80;;
7432;SDS011;32233;49.500;7.764;2023-04-03T02:20:42;5.47;;;4.00;;
7432;SDS011;32233;49.500;7.764;2023-04-03T02:23:08;5.37;;;3.80;;
7432;SDS011;32233;49.500;7.764;2023-04-03T02:25:36;6.07;;;3.73;;
7432;SDS011;32233;49.500;7.764;2023-04-03T02:28:04;3.87;;;3.57;;
7432;SDS011;32233;49.500;7.764;2023-04-03T02:30:31;3.87;;;3.43;;
7432;SDS011;32233;49.500;7.764;2023-04-03T02:32:58;5.13;;;3.87;;
7432;SDS011;32233;49.500;7.764;2023-04-03T02:35:25;4.93;;;3.77;;
7432;SDS011;32233;49.500;7.764;2023-04-03T02:37:54;5.53;;;4.10;;
7432;SDS011;32233;49.500;7.764;2023-04-03T02:40:22;7.20;;;4.40;;
7432;SDS011;32233;49.500;7.764;2023-04-03T02:42:49;4.77;;;3.93;;
7432;SDS011;32233;49.500;7.764;2023-04-03T02:45:17;5.03;;;3.97;;
7432;SDS011;32233;49.500;7.764;2023-04-03T02:47:44;3.40;;;3.10;;
7432;SDS011;32233;49.500;7.764;2023-04-03T02:50:10;4.07;;;3.70;;
7432;SDS011;32233;49.500;7.764;2023-04-03T02:52:37;5.13;;;3.90;;
7432;SDS011;32233;49.500;7.764;2023-04-03T02:55:03;3.80;;;3.50;;
7432;SDS011;32233;49.500;7.764;2023-04-03T02:57:31;4.10;;;3.70;;
7432;SDS011;32233;49.500;7.764;2023-04-03T02:59:57;4.87;;;3.73;;
7432;SDS011;32233;49.500;7.764;2023-04-03T03:02:24;4.83;;;3.43;;
7432;SDS011;32233;49.500;7.764;2023-04-03T03:04:51;4.13;;;3.30;;
7432;SDS011;32233;49.500;7.764;2023-04-03T03:07:17;3.77;;;3.27;;
7432;SDS011;32233;49.500;7.764;2023-04-03T03:09:44;4.23;;;3.57;;
7432;SDS011;32233;49.500;7.764;2023-04-03T03:12:10;4.67;;;3.97;;
7432;SDS011;32233;49.500;7.764;2023-04-03T03:14:37;6.10;;;3.83;;
7432;SDS011;32233;49.500;7.764;2023-04-03T03:17:03;4.07;;;3.70;;
7432;SDS011;32233;49.500;7.764;2023-04-03T03:19:30;5.27;;;3.33;;
7432;SDS011;32233;49.500;7.764;2023-04-03T03:21:56;5.23;;;3.60;;
7432;SDS011;32233;49.500;7.764;2023-04-03T03:24:23;5.83;;;3.70;;
7432;SDS011;32233;49.500;7.764;2023-04-03T03:26:49;4.63;;;3.33;;
7432;SDS011;32233;49.500;7.764;2023-04-03T03:29:16;4.37;;;3.97;;
7432;SDS011;32233;49.500;7.764;2023-04-03T03:31:44;3.60;;;3.03;;
7432;SDS011;32233;49.500;7.764;2023-04-03T03:34:11;4.07;;;3.63;;
7432;SDS011;32233;49.500;7.764;2023-04-03T03:36:38;5.00;;;3.67;;
7432;SDS011;32233;49.500;7.764;2023-04-03T03:39:05;5.00;;;2.93;;
7432;SDS011;32233;49.500;7.764;2023-04-03T03:41:32;4.27;;;3.10;;
7432;SDS011;32233;49.500;7.764;2023-04-03T03:43:59;3.10;;;2.90;;
7432;SDS011;32233;49.500;7.764;2023-04-03T03:46:28;6.13;;;2.83;;
7432;SDS011;32233;49.500;7.764;2023-04-03T03:48:54;4.77;;;3.07;;
7432;SDS011;32233;49.500;7.764;2023-04-03T03:51:21;5.50;;;2.90;;
7432;SDS011;32233;49.500;7.764;2023-04-03T03:53:48;2.90;;;2.70;;
7432;SDS011;32233;49.500;7.764;2023-04-03T03:56:17;3.33;;;2.83;;
7432;SDS011;32233;49.500;7.764;2023-04-03T03:58:44;3.17;;;2.60;;
7432;SDS011;32233;49.500;7.764;2023-04-03T04:01:12;3.03;;;2.40;;
7432;SDS011;32233;49.500;7.764;2023-04-03T04:03:43;6.03;;;2.80;;
7432;SDS011;32233;49.500;7.764;2023-04-03T04:06:14;3.57;;;2.67;;
7432;SDS011;32233;49.500;7.764;2023-04-03T04:08:40;3.97;;;2.43;;
7432;SDS011;32233;49.500;7.764;2023-04-03T04:11:09;4.27;;;2.50;;
7432;SDS011;32233;49.500;7.764;2023-04-03T04:13:37;2.33;;;2.20;;
7432;SDS011;32233;49.500;7.764;2023-04-03T04:16:04;4.57;;;2.13;;
7432;SDS011;32233;49.500;7.764;2023-04-03T04:18:32;2.77;;;2.07;;
7432;SDS011;32233;49.500;7.764;2023-04-03T04:20:59;2.70;;;2.33;;
7432;SDS011;32233;49.500;7.764;2023-04-03T04:23:26;2.93;;;1.90;;
7432;SDS011;32233;49.500;7.764;2023-04-03T04:25:53;4.93;;;2.50;;
7432;SDS011;32233;49.500;7.764;2023-04-03T04:28:21;3.27;;;2.43;;
7432;SDS011;32233;49.500;7.764;2023-04-03T04:30:50;2.47;;;2.27;;
7432;SDS011;32233;49.500;7.764;2023-04-03T04:33:18;3.63;;;2.20;;
7432;SDS011;32233;49.500;7.764;2023-04-03T04:35:47;2.20;;;2.10;;
7432;SDS011;32233;49.500;7.764;2023-04-03T04:38:16;4.80;;;2.23;;
7432;SDS011;32233;49.500;7.764;2023-04-03T04:40:43;2.00;;;1.80;;
7432;SDS011;32233;49.500;7.764;2023-04-03T04:43:10;2.30;;;2.10;;
7432;SDS011;32233;49.500;7.764;2023-04-03T04:45:42;2.60;;;2.27;;
7432;SDS011;32233;49.500;7.764;2023-04-03T04:48:09;2.30;;;2.10;;
7432;SDS011;32233;49.500;7.764;2023-04-03T04:50:35;4.67;;;2.40;;
7432;SDS011;32233;49.500;7.764;2023-04-03T04:53:02;2.60;;;2.40;;
7432;SDS011;32233;49.500;7.764;2023-04-03T04:55:30;3.70;;;2.27;;
7432;SDS011;32233;49.500;7.764;2023-04-03T04:57:56;3.43;;;2.13;;
7432;SDS011;32233;49.500;7.764;2023-04-03T05:00:23;2.30;;;2.10;;
7432;SDS011;32233;49.500;7.764;2023-04-03T05:02:49;2.37;;;2.17;;
7432;SDS011;32233;49.500;7.764;2023-04-03T05:05:18;3.97;;;2.30;;
7432;SDS011;32233;49.500;7.764;2023-04-03T05:07:45;5.97;;;2.40;;
7432;SDS011;32233;49.500;7.764;2023-04-03T05:10:12;4.40;;;3.10;;
7432;SDS011;32233;49.500;7.764;2023-04-03T05:12:39;3.50;;;2.77;;
7432;SDS011;32233;49.500;7.764;2023-04-03T05:15:07;2.97;;;2.50;;
7432;SDS011;32233;49.500;7.764;2023-04-03T05:17:34;4.03;;;3.00;;
7432;SDS011;32233;49.500;7.764;2023-04-03T05:20:03;2.93;;;2.60;;
7432;SDS011;32233;49.500;7.764;2023-04-03T05:22:31;2.90;;;2.47;;
7432;SDS011;32233;49.500;7.764;2023-04-03T05:25:03;3.37;;;2.43;;
7432;SDS011;32233;49.500;7.764;2023-04-03T05:27:30;4.13;;;2.93;;
7432;SDS011;32233;49.500;7.764;2023-04-03T05:29:58;4.07;;;2.73;;
7432;SDS011;32233;49.500;7.764;2023-04-03T05:32:26;4.43;;;2.90;;
7432;SDS011;32233;49.500;7.764;2023-04-03T05:35:09;3.20;;;2.60;;
7432;SDS011;32233;49.500;7.764;2023-04-03T05:37:37;4.70;;;3.03;;
7432;SDS011;32233;49.500;7.764;2023-04-03T05:40:04;4.47;;;2.70;;
7432;SDS011;32233;49.500;7.764;2023-04-03T05:42:32;4.57;;;2.90;;
7432;SDS011;32233;49.500;7.764;2023-04-03T05:44:59;4.40;;;2.60;;
7432;SDS011;32233;49.500;7.764;2023-04-03T05:47:26;4.20;;;2.20;;
7432;SDS011;32233;49.500;7.764;2023-04-03T05:49:52;3.10;;;2.33;;
7432;SDS011;32233;49.500;7.764;2023-04-03T05:54:56;3.70;;;2.10;;
7432;SDS011;32233;49.500;7.764;2023-04-03T05:57:26;2.10;;;1.70;;
7432;SDS011;32233;49.500;7.764;2023-04-03T05:59:53;2.70;;;1.83;;
7432;SDS011;32233;49.500;7.764;2023-04-03T06:02:21;2.83;;;1.83;;
7432;SDS011;32233;49.500;7.764;2023-04-03T06:04:49;3.43;;;2.03;;
7432;SDS011;32233;49.500;7.764;2023-04-03T06:07:18;3.40;;;2.00;;
7432;SDS011;32233;49.500;7.764;2023-04-03T06:09:51;3.17;;;2.40;;
7432;SDS011;32233;49.500;7.764;2023-04-03T06:12:18;3.60;;;1.67;;
7432;SDS011;32233;49.500;7.764;2023-04-03T06:14:45;3.77;;;1.97;;
7432;SDS011;32233;49.500;7.764;2023-04-03T06:17:13;3.93;;;1.83;;
7432;SDS011;32233;49.500;7.764;2023-04-03T06:19:44;1.70;;;1.30;;
7432;SDS011;32233;49.500;7.764;2023-04-03T06:22:11;1.83;;;1.40;;
7432;SDS011;32233;49.500;7.764;2023-04-03T06:24:38;2.17;;;1.53;;
7432;SDS011;32233;49.500;7.764;2023-04-03T06:27:04;6.03;;;1.80;;
7432;SDS011;32233;49.500;7.764;2023-04-03T06:29:31;3.47;;;1.70;;
7432;SDS011;32233;49.500;7.764;2023-04-03T06:31:57;3.33;;;1.30;;
7432;SDS011;32233;49.500;7.764;2023-04-03T06:34:24;2.60;;;1.50;;
7432;SDS011;32233;49.500;7.764;2023-04-03T06:36:50;3.60;;;1.63;;
7432;SDS011;32233;49.500;7.764;2023-04-03T06:39:18;2.67;;;1.60;;
7432;SDS011;32233;49.500;7.764;2023-04-03T06:41:49;2.27;;;1.57;;
7432;SDS011;32233;49.500;7.764;2023-04-03T06:44:24;2.83;;;1.80;;
7432;SDS011;32233;49.500;7.764;2023-04-03T06:46:51;3.13;;;1.63;;
7432;SDS011;32233;49.500;7.764;2023-04-03T06:49:18;2.30;;;1.33;;
7432;SDS011;32233;49.500;7.764;2023-04-03T06:51:45;3.20;;;1.50;;
7432;SDS011;32233;49.500;7.764;2023-04-03T06:54:11;4.43;;;1.60;;
7432;SDS011;32233;49.500;7.764;2023-04-03T06:56:38;2.23;;;1.70;;
7432;SDS011;32233;49.500;7.764;2023-04-03T06:59:04;3.17;;;1.67;;
7432;SDS011;32233;49.500;7.764;2023-04-03T07:01:31;2.63;;;1.40;;
7432;SDS011;32233;49.500;7.764;2023-04-03T07:03:58;2.60;;;1.57;;
7432;SDS011;32233;49.500;7.764;2023-04-03T07:06:25;3.50;;;1.43;;
7432;SDS011;32233;49.500;7.764;2023-04-03T07:08:54;4.07;;;1.60;;
7432;SDS011;32233;49.500;7.764;2023-04-03T07:11:21;3.13;;;1.63;;
7432;SDS011;32233;49.500;7.764;2023-04-03T07:13:48;2.77;;;1.73;;
7432;SDS011;32233;49.500;7.764;2023-04-03T07:16:15;3.27;;;1.50;;
7432;SDS011;32233;49.500;7.764;2023-04-03T07:18:42;1.93;;;1.53;;
7432;SDS011;32233;49.500;7.764;2023-04-03T07:21:09;4.03;;;1.60;;
7432;SDS011;32233;49.500;7.764;2023-04-03T07:23:36;4.07;;;1.83;;
7432;SDS011;32233;49.500;7.764;2023-04-03T07:26:03;4.73;;;2.10;;
7432;SDS011;32233;49.500;7.764;2023-04-03T07:28:30;3.27;;;1.60;;
7432;SDS011;32233;49.500;7.764;2023-04-03T07:31:01;2.80;;;1.63;;
7432;SDS011;32233;49.500;7.764;2023-04-03T07:33:32;4.33;;;1.70;;
7432;SDS011;32233;49.500;7.764;2023-04-03T07:36:01;2.83;;;1.57;;
7432;SDS011;32233;49.500;7.764;2023-04-03T07:38:28;4.40;;;1.90;;
7432;SDS011;32233;49.500;7.764;2023-04-03T07:40:54;3.57;;;1.60;;
7432;SDS011;32233;49.500;7.764;2023-04-03T07:43:21;3.43;;;1.90;;
7432;SDS011;32233;49.500;7.764;2023-04-03T07:45:48;3.77;;;1.67;;
7432;SDS011;32233;49.500;7.764;2023-04-03T07:48:19;3.40;;;2.07;;
7432;SDS011;32233;49.500;7.764;2023-04-03T07:50:47;3.27;;;1.63;;
7432;SDS011;32233;49.500;7.764;2023-04-03T07:53:14;3.03;;;1.60;;
7432;SDS011;32233;49.500;7.764;2023-04-03T07:55:41;5.70;;;1.67;;
7432;SDS011;32233;49.500;7.764;2023-04-03T07:58:11;3.23;;;1.90;;
7432;SDS011;32233;49.500;7.764;2023-04-03T08:00:39;3.30;;;1.93;;
7432;SDS011;32233;49.500;7.764;2023-04-03T08:03:06;2.97;;;2.27;;
7432;SDS011;32233;49.500;7.764;2023-04-03T08:05:38;4.57;;;1.83;;
7432;SDS011;32233;49.500;7.764;2023-04-03T08:08:10;2.43;;;1.70;;
7432;SDS011;32233;49.500;7.764;2023-04-03T08:10:38;3.77;;;1.73;;
7432;SDS011;32233;49.500;7.764;2023-04-03T08:13:05;3.20;;;1.73;;
7432;SDS011;32233;49.500;7.764;2023-04-03T08:15:32;3.50;;;1.90;;
7432;SDS011;32233;49.500;7.764;2023-04-03T08:17:59;1.97;;;1.73;;
7432;SDS011;32233;49.500;7.764;2023-04-03T08:20:27;1.80;;;1.63;;
7432;SDS011;32233;49.500;7.764;2023-04-03T08:22:54;2.93;;;2.00;;
7432;SDS011;32233;49.500;7.764;2023-04-03T08:25:20;3.90;;;2.30;;
7432;SDS011;32233;49.500;7.764;2023-04-03T08:27:48;3.10;;;2.60;;
7432;SDS011;32233;49.500;7.764;2023-04-03T08:30:14;3.17;;;2.07;;
7432;SDS011;32233;49.500;7.764;2023-04-03T08:32:41;2.43;;;1.70;;
7432;SDS011;32233;49.500;7.764;2023-04-03T08:35:09;3.20;;;2.10;;
7432;SDS011;32233;49.500;7.764;2023-04-03T08:37:37;5.90;;;1.87;;
7432;SDS011;32233;49.500;7.764;2023-04-03T08:40:05;5.07;;;2.27;;
7432;SDS011;32233;49.500;7.764;2023-04-03T08:42:36;4.13;;;2.60;;
7432;SDS011;32233;49.500;7.764;2023-04-03T08:45:16;5.00;;;2.70;;
7432;SDS011;32233;49.500;7.764;2023-04-03T08:48:04;3.40;;;2.10;;
7432;SDS011;32233;49.500;7.764;2023-04-03T08:50:36;6.70;;;2.53;;
7432;SDS011;32233;49.500;7.764;2023-04-03T08:53:06;3.07;;;2.33;;
7432;SDS011;32233;49.500;7.764;2023-04-03T08:55:42;3.63;;;2.30;;
7432;SDS011;32233;49.500;7.764;2023-04-03T09:00:48;4.10;;;2.30;;
7432;SDS011;32233;49.500;7.764;2023-04-03T09:03:21;2.77;;;1.93;;
7432;SDS011;32233;49.500;7.764;2023-04-03T09:05:53;7.10;;;2.37;;
7432;SDS011;32233;49.500;7.764;2023-04-03T09:08:28;3.57;;;2.57;;
7432;SDS011;32233;49.500;7.764;2023-04-03T09:11:09;4.37;;;2.67;;
7432;SDS011;32233;49.500;7.764;2023-04-03T09:13:52;4.17;;;2.27;;
7432;SDS011;32233;49.500;7.764;2023-04-03T09:21:56;2.70;;;1.87;;
7432;SDS011;32233;49.500;7.764;2023-04-03T09:24:43;3.80;;;2.30;;
7432;SDS011;32233;49.500;7.764;2023-04-03T09:27:13;2.30;;;1.83;;
7432;SDS011;32233;49.500;7.764;2023-04-03T09:29:41;3.40;;;2.07;;
7432;SDS011;32233;49.500;7.764;2023-04-03T09:32:18;2.43;;;2.00;;
7432;SDS011;32233;49.500;7.764;2023-04-03T09:34:52;3.90;;;1.97;;
7432;SDS011;32233;49.500;7.764;2023-04-03T09:37:37;1.90;;;1.70;;
7432;SDS011;32233;49.500;7.764;2023-04-03T09:42:53;3.90;;;2.50;;
7432;SDS011;32233;49.500;7.764;2023-04-03T09:45:35;6.10;;;2.13;;
7432;SDS011;32233;49.500;7.764;2023-04-03T09:48:13;3.10;;;2.03;;
7432;SDS011;32233;49.500;7.764;2023-04-03T09:53:27;4.13;;;2.07;;
7432;SDS011;32233;49.500;7.764;2023-04-03T09:58:45;4.60;;;2.13;;
7432;SDS011;32233;49.500;7.764;2023-04-03T10:04:09;3.73;;;1.90;;
7432;SDS011;32233;49.500;7.764;2023-04-03T10:09:27;4.17;;;1.70;;
7432;SDS011;32233;49.500;7.764;2023-04-03T10:12:03;2.27;;;1.60;;
7432;SDS011;32233;49.500;7.764;2023-04-03T10:14:40;2.63;;;1.87;;
7432;SDS011;32233;49.500;7.764;2023-04-03T10:22:44;3.03;;;1.63;;
7432;SDS011;32233;49.500;7.764;2023-04-03T10:34:11;1.70;;;1.43;;
7432;SDS011;32233;49.500;7.764;2023-04-03T10:36:46;2.80;;;1.70;;
7432;SDS011;32233;49.500;7.764;2023-04-03T10:39:39;3.40;;;1.53;;
7432;SDS011;32233;49.500;7.764;2023-04-03T10:47:57;1.80;;;1.70;;
7432;SDS011;32233;49.500;7.764;2023-04-03T10:50:41;3.47;;;1.33;;
7432;SDS011;32233;49.500;7.764;2023-04-03T10:53:30;3.93;;;1.57;;
7432;SDS011;32233;49.500;7.764;2023-04-03T10:58:50;3.23;;;1.67;;
7432;SDS011;32233;49.500;7.764;2023-04-03T11:01:21;3.27;;;1.40;;
7432;SDS011;32233;49.500;7.764;2023-04-03T11:03:58;2.67;;;1.50;;
7432;SDS011;32233;49.500;7.764;2023-04-03T11:06:31;3.17;;;1.30;;
7432;SDS011;32233;49.500;7.764;2023-04-03T11:09:10;3.53;;;1.50;;
7432;SDS011;32233;49.500;7.764;2023-04-03T11:11:44;3.40;;;1.83;;
7432;SDS011;32233;49.500;7.764;2023-04-03T11:14:30;3.70;;;1.70;;
7432;SDS011;32233;49.500;7.764;2023-04-03T11:17:20;3.00;;;1.33;;
7432;SDS011;32233;49.500;7.764;2023-04-03T11:22:57;2.10;;;1.70;;
7432;SDS011;32233;49.500;7.764;2023-04-03T11:25:27;4.20;;;1.60;;
7432;SDS011;32233;49.500;7.764;2023-04-03T11:27:58;1.80;;;1.40;;
7432;SDS011;32233;49.500;7.764;2023-04-03T11:30:30;2.37;;;1.33;;
7432;SDS011;32233;49.500;7.764;2023-04-03T11:33:03;3.03;;;1.37;;
7432;SDS011;32233;49.500;7.764;2023-04-03T11:35:43;2.77;;;1.23;;
7432;SDS011;32233;49.500;7.764;2023-04-03T11:38:21;2.90;;;1.80;;
7432;SDS011;32233;49.500;7.764;2023-04-03T11:40:53;3.07;;;1.40;;
7432;SDS011;32233;49.500;7.764;2023-04-03T11:43:28;2.80;;;1.57;;
7432;SDS011;32233;49.500;7.764;2023-04-03T11:50:58;1.83;;;1.40;;
7432;SDS011;32233;49.500;7.764;2023-04-03T11:53:30;2.30;;;1.50;;
7432;SDS011;32233;49.500;7.764;2023-04-03T12:01:05;2.63;;;1.60;;
7432;SDS011;32233;49.500;7.764;2023-04-03T12:03:34;2.77;;;1.63;;
7432;SDS011;32233;49.500;7.764;2023-04-03T12:08:53;3.37;;;2.53;;
7432;SDS011;32233;49.500;7.764;2023-04-03T12:11:30;1.63;;;1.30;;
7432;SDS011;32233;49.500;7.764;2023-04-03T12:29:20;2.67;;;1.63;;
7432;SDS011;32233;49.500;7.764;2023-04-03T12:37:27;3.30;;;1.50;;
7432;SDS011;32233;49.500;7.764;2023-04-03T12:40:25;2.43;;;1.40;;
7432;SDS011;32233;49.500;7.764;2023-04-03T12:48:39;2.70;;;2.10;;
7432;SDS011;32233;49.500;7.764;2023-04-03T12:51:34;2.50;;;1.37;;
7432;SDS011;32233;49.500;7.764;2023-04-03T12:54:13;2.47;;;1.20;;
7432;SDS011;32233;49.500;7.764;2023-04-03T12:56:45;4.33;;;1.70;;
7432;SDS011;32233;49.500;7.764;2023-04-03T12:59:22;2.30;;;1.47;;
7432;SDS011;32233;49.500;7.764;2023-04-03T13:01:53;3.17;;;1.33;;
7432;SDS011;32233;49.500;7.764;2023-04-03T13:04:21;2.70;;;1.33;;
7432;SDS011;32233;49.500;7.764;2023-04-03T13:06:49;3.07;;;1.30;;
7432;SDS011;32233;49.500;7.764;2023-04-03T13:09:29;3.90;;;2.10;;
7432;SDS011;32233;49.500;7.764;2023-04-03T13:12:10;3.83;;;1.80;;
7432;SDS011;32233;49.500;7.764;2023-04-03T13:14:38;3.70;;;1.50;;
7432;SDS011;32233;49.500;7.764;2023-04-03T13:17:12;2.37;;;1.43;;
7432;SDS011;32233;49.500;7.764;2023-04-03T13:19:41;3.53;;;1.40;;
7432;SDS011;32233;49.500;7.764;2023-04-03T13:22:23;4.33;;;1.77;;
7432;SDS011;32233;49.500;7.764;2023-04-03T13:25:06;2.07;;;1.40;;
7432;SDS011;32233;49.500;7.764;2023-04-03T13:27:35;4.00;;;1.73;;
7432;SDS011;32233;49.500;7.764;2023-04-03T13:30:05;2.70;;;1.77;;
7432;SDS011;32233;49.500;7.764;2023-04-03T13:32:33;2.33;;;1.63;;
7432;SDS011;32233;49.500;7.764;2023-04-03T13:34:59;3.17;;;1.63;;
7432;SDS011;32233;49.500;7.764;2023-04-03T13:37:53;2.77;;;1.83;;
7432;SDS011;32233;49.500;7.764;2023-04-03T13:40:21;3.47;;;1.67;;
7432;SDS011;32233;49.500;7.764;2023-04-03T13:42:58;2.33;;;1.67;;
7432;SDS011;32233;49.500;7.764;2023-04-03T13:45:33;3.87;;;1.70;;
7432;SDS011;32233;49.500;7.764;2023-04-03T13:48:09;3.07;;;1.70;;
7432;SDS011;32233;49.500;7.764;2023-04-03T13:50:54;2.37;;;1.80;;
7432;SDS011;32233;49.500;7.764;2023-04-03T13:53:25;3.97;;;1.57;;
7432;SDS011;32233;49.500;7.764;2023-04-03T13:58:35;2.20;;;1.73;;
7432;SDS011;32233;49.500;7.764;2023-04-03T14:01:11;1.70;;;1.60;;
7432;SDS011;32233;49.500;7.764;2023-04-03T14:03:51;3.40;;;1.70;;
7432;SDS011;32233;49.500;7.764;2023-04-03T14:06:28;2.40;;;1.47;;
7432;SDS011;32233;49.500;7.764;2023-04-03T14:08:56;3.63;;;1.83;;
7432;SDS011;32233;49.500;7.764;2023-04-03T14:11:23;1.97;;;1.40;;
7432;SDS011;32233;49.500;7.764;2023-04-03T14:13:53;2.77;;;1.50;;
7432;SDS011;32233;49.500;7.764;2023-04-03T14:16:25;4.83;;;1.60;;
7432;SDS011;32233;49.500;7.764;2023-04-03T14:18:55;2.37;;;1.57;;
7432;SDS011;32233;49.500;7.764;2023-04-03T14:21:23;2.13;;;1.40;;
7432;SDS011;32233;49.500;7.764;2023-04-03T14:23:49;1.53;;;1.40;;
7432;SDS011;32233;49.500;7.764;2023-04-03T14:26:17;3.33;;;1.70;;
7432;SDS011;32233;49.500;7.764;2023-04-03T14:28:47;2.30;;;1.87;;
7432;SDS011;32233;49.500;7.764;2023-04-03T14:31:18;5.83;;;1.67;;
7432;SDS011;32233;49.500;7.764;2023-04-03T14:33:46;2.27;;;1.23;;
7432;SDS011;32233;49.500;7.764;2023-04-03T14:36:23;5.17;;;1.63;;
7432;SDS011;32233;49.500;7.764;2023-04-03T14:38:52;3.73;;;1.80;;
7432;SDS011;32233;49.500;7.764;2023-04-03T14:41:20;2.47;;;1.80;;
7432;SDS011;32233;49.500;7.764;2023-04-03T14:43:49;1.93;;;1.60;;
7432;SDS011;32233;49.500;7.764;2023-04-03T14:46:18;1.80;;;1.67;;
7432;SDS011;32233;49.500;7.764;2023-04-03T14:48:54;4.87;;;1.90;;
7432;SDS011;32233;49.500;7.764;2023-04-03T14:51:21;2.73;;;1.70;;
7432;SDS011;32233;49.500;7.764;2023-04-03T14:53:48;2.97;;;2.00;;
7432;SDS011;32233;49.500;7.764;2023-04-03T14:56:19;4.27;;;1.73;;
7432;SDS011;32233;49.500;7.764;2023-04-03T14:58:50;3.03;;;1.90;;
7432;SDS011;32233;49.500;7.764;2023-04-03T15:01:21;3.23;;;1.73;;
7432;SDS011;32233;49.500;7.764;2023-04-03T15:03:48;3.23;;;2.13;;
7432;SDS011;32233;49.500;7.764;2023-04-03T15:06:14;3.20;;;1.63;;
7432;SDS011;32233;49.500;7.764;2023-04-03T15:08:42;2.53;;;1.30;;
7432;SDS011;32233;49.500;7.764;2023-04-03T15:11:10;3.20;;;1.37;;
7432;SDS011;32233;49.500;7.764;2023-04-03T15:13:37;3.50;;;1.50;;
7432;SDS011;32233;49.500;7.764;2023-04-03T15:16:05;3.50;;;1.40;;
7432;SDS011;32233;49.500;7.764;2023-04-03T15:18:40;2.23;;;1.50;;
7432;SDS011;32233;49.500;7.764;2023-04-03T15:21:07;2.23;;;1.70;;
7432;SDS011;32233;49.500;7.764;2023-04-03T15:23:33;2.23;;;1.37;;
7432;SDS011;32233;49.500;7.764;2023-04-03T15:26:00;2.30;;;1.40;;
7432;SDS011;32233;49.500;7.764;2023-04-03T15:28:38;2.33;;;1.77;;
7432;SDS011;32233;49.500;7.764;2023-04-03T15:31:06;2.57;;;1.70;;
7432;SDS011;32233;49.500;7.764;2023-04-03T15:33:34;2.50;;;1.60;;
7432;SDS011;32233;49.500;7.764;2023-04-03T15:36:02;1.90;;;1.80;;
7432;SDS011;32233;49.500;7.764;2023-04-03T15:38:42;2.10;;;1.60;;
7432;SDS011;32233;49.500;7.764;2023-04-03T15:41:08;3.13;;;2.20;;
7432;SDS011;32233;49.500;7.764;2023-04-03T15:43:35;3.53;;;2.53;;
7432;SDS011;32233;49.500;7.764;2023-04-03T15:46:01;7.07;;;3.50;;
7432;SDS011;32233;49.500;7.764;2023-04-03T15:48:28;3.37;;;2.20;;
7432;SDS011;32233;49.500;7.764;2023-04-03T15:50:55;3.07;;;2.30;;
7432;SDS011;32233;49.500;7.764;2023-04-03T15:53:24;2.30;;;1.93;;
7432;SDS011;32233;49.500;7.764;2023-04-03T15:55:50;3.33;;;1.50;;
7432;SDS011;32233;49.500;7.764;2023-04-03T15:58:17;3.20;;;2.30;;
7432;SDS011;32233;49.500;7.764;2023-04-03T16:00:44;3.07;;;2.10;;
7432;SDS011;32233;49.500;7.764;2023-04-03T16:03:11;2.57;;;2.30;;
7432;SDS011;32233;49.500;7.764;2023-04-03T16:05:41;2.50;;;2.30;;
7432;SDS011;32233;49.500;7.764;2023-04-03T16:08:08;2.27;;;2.00;;
7432;SDS011;32233;49.500;7.764;2023-04-03T16:10:35;2.57;;;2.03;;
7432;SDS011;32233;49.500;7.764;2023-04-03T16:13:03;3.60;;;1.73;;
7432;SDS011;32233;49.500;7.764;2023-04-03T16:15:30;3.80;;;2.40;;
7432;SDS011;32233;49.500;7.764;2023-04-03T16:17:58;3.87;;;2.50;;
7432;SDS011;32233;49.500;7.764;2023-04-03T16:20:25;3.27;;;2.43;;
7432;SDS011;32233;49.500;7.764;2023-04-03T16:22:53;2.60;;;2.17;;
7432;SDS011;32233;49.500;7.764;2023-04-03T16:25:20;3.47;;;2.10;;
7432;SDS011;32233;49.500;7.764;2023-04-03T16:27:47;3.87;;;2.40;;
7432;SDS011;32233;49.500;7.764;2023-04-03T16:30:13;3.60;;;2.33;;
7432;SDS011;32233;49.500;7.764;2023-04-03T16:32:40;3.60;;;2.50;;
7432;SDS011;32233;49.500;7.764;2023-04-03T16:35:07;4.73;;;2.60;;
7432;SDS011;32233;49.500;7.764;2023-04-03T16:37:36;3.30;;;2.67;;
7432;SDS011;32233;49.500;7.764;2023-04-03T16:40:04;2.70;;;2.50;;
7432;SDS011;32233;49.500;7.764;2023-04-03T16:42:32;3.17;;;2.50;;
7432;SDS011;32233;49.500;7.764;2023-04-03T16:45:01;3.67;;;2.43;;
7432;SDS011;32233;49.500;7.764;2023-04-03T16:47:29;3.47;;;2.30;;
7432;SDS011;32233;49.500;7.764;2023-04-03T16:49:56;3.37;;;2.37;;
7432;SDS011;32233;49.500;7.764;2023-04-03T16:52:23;2.73;;;2.40;;
7432;SDS011;32233;49.500;7.764;2023-04-03T16:54:49;2.57;;;2.37;;
7432;SDS011;32233;49.500;7.764;2023-04-03T16:57:17;3.37;;;2.10;;